createdAt,value
2022-08-12T00:00:10.994Z,21.67
2022-08-12T00:02:56.407Z,21.59
2022-08-12T00:05:57.182Z,21.53
2022-08-12T00:08:48.722Z,21.47
2022-08-12T00:11:34.700Z,21.34
2022-08-12T00:14:20.445Z,21.36
2022-08-12T00:17:08.333Z,21.40
2022-08-12T00:19:54.241Z,21.14
2022-08-12T00:22:40.321Z,21.12
2022-08-12T00:26:05.702Z,21.03
2022-08-12T00:28:32.600Z,20.91
2022-08-12T00:31:18.370Z,20.98
2022-08-12T00:34:05.568Z,20.88
2022-08-12T00:36:51.435Z,20.92
2022-08-12T00:39:37.153Z,20.97
2022-08-12T00:42:10.749Z,20.86
2022-08-12T00:44:40.972Z,20.73
2022-08-12T00:47:24.480Z,20.61
2022-08-12T00:49:56.123Z,20.70
2022-08-12T00:52:25.093Z,20.70
2022-08-12T00:54:57.414Z,20.70
2022-08-12T00:57:30.113Z,20.67
2022-08-12T01:00:00.589Z,20.67
2022-08-12T01:02:30.717Z,20.75
2022-08-12T01:05:20.262Z,20.77
2022-08-12T01:08:07.484Z,20.73
2022-08-12T01:10:54.910Z,20.70
2022-08-12T01:13:23.607Z,20.70
2022-08-12T01:15:54.820Z,20.70
2022-08-12T01:18:25.024Z,20.53
2022-08-12T01:21:07.955Z,20.47
2022-08-12T01:24:27.995Z,20.43
2022-08-12T01:26:56.065Z,20.46
2022-08-12T01:29:32.790Z,20.45
2022-08-12T01:32:06.449Z,20.49
2022-08-12T01:34:38.739Z,20.40
2022-08-12T01:37:12.819Z,20.35
2022-08-12T01:40:34.588Z,20.28
2022-08-12T01:42:44.590Z,20.31
2022-08-12T01:45:13.567Z,20.31
2022-08-12T01:48:04.934Z,20.23
2022-08-12T01:50:47.658Z,20.26
2022-08-12T01:53:16.216Z,20.27
2022-08-12T01:55:47.673Z,20.28
2022-08-12T01:58:32.006Z,20.20
2022-08-12T02:01:04.754Z,20.26
2022-08-12T02:04:05.045Z,20.16
2022-08-12T02:07:11.538Z,20.10
2022-08-12T02:10:50.802Z,20.20
2022-08-12T02:13:10.102Z,20.19
2022-08-12T02:15:52.622Z,20.29
2022-08-12T02:18:27.597Z,20.36
2022-08-12T02:21:05.495Z,20.28
2022-08-12T02:23:35.217Z,20.19
2022-08-12T02:26:08.186Z,20.00
2022-08-12T02:28:38.317Z,19.94
2022-08-12T02:31:12.720Z,20.06
2022-08-12T02:33:41.797Z,20.01
2022-08-12T02:36:10.305Z,20.00
2022-08-12T02:38:43.241Z,19.97
2022-08-12T02:41:13.693Z,19.83
2022-08-12T02:43:50.006Z,19.74
2022-08-12T02:46:25.693Z,19.73
2022-08-12T02:48:59.421Z,19.72
2022-08-12T02:51:32.036Z,19.69
2022-08-12T02:54:05.414Z,19.72
2022-08-12T02:56:38.034Z,19.66
2022-08-12T02:59:12.377Z,19.61
2022-08-12T03:01:48.246Z,19.69
2022-08-12T03:04:26.788Z,19.55
2022-08-12T03:07:10.743Z,19.59
2022-08-12T03:10:02.214Z,19.61
2022-08-12T03:12:40.058Z,19.63
2022-08-12T03:15:22.219Z,19.62
2022-08-12T03:18:25.908Z,19.67
2022-08-12T03:20:49.640Z,19.73
2022-08-12T03:23:28.753Z,19.57
2022-08-12T03:25:58.978Z,19.71
2022-08-12T03:28:41.345Z,19.76
2022-08-12T03:31:11.176Z,19.96
2022-08-12T03:33:45.679Z,20.13
2022-08-12T03:36:33.618Z,20.33
2022-08-12T03:39:17.314Z,20.80
2022-08-12T03:41:51.354Z,21.34
2022-08-12T03:44:46.165Z,21.86
2022-08-12T03:47:38.254Z,21.90
2022-08-12T03:50:26.078Z,22.75
2022-08-12T03:53:11.955Z,23.42
2022-08-12T03:55:57.536Z,23.74
2022-08-12T03:58:44.264Z,24.40
2022-08-12T04:01:13.296Z,24.17
2022-08-12T04:03:55.475Z,23.89
2022-08-12T04:06:34.418Z,24.49
2022-08-12T04:09:16.627Z,24.36
2022-08-12T04:12:04.641Z,24.83
2022-08-12T04:14:33.709Z,25.34
2022-08-12T04:17:03.499Z,24.58
2022-08-12T04:19:32.314Z,24.37
2022-08-12T04:22:03.653Z,24.17
2022-08-12T04:24:35.511Z,24.34
2022-08-12T04:27:05.809Z,24.19
2022-08-12T04:30:30.252Z,23.69
2022-08-12T04:32:24.168Z,23.84
2022-08-12T04:34:55.502Z,23.83
2022-08-12T04:37:25.442Z,23.25
2022-08-12T04:39:55.313Z,23.40
2022-08-12T04:42:26.266Z,22.96
2022-08-12T04:44:55.319Z,23.38
2022-08-12T04:47:25.486Z,23.28
2022-08-12T04:49:54.048Z,24.39
2022-08-12T04:52:22.902Z,24.16
2022-08-12T04:54:53.412Z,25.23
2022-08-12T04:57:21.666Z,25.01
2022-08-12T04:59:49.845Z,26.06
2022-08-12T05:02:21.795Z,25.68
2022-08-12T05:04:52.818Z,26.96
2022-08-12T05:07:21.436Z,27.75
2022-08-12T05:09:59.250Z,27.30
2022-08-12T05:12:36.870Z,29.05
2022-08-12T05:15:19.881Z,28.42
2022-08-12T05:18:00.175Z,28.65
2022-08-12T05:20:30.966Z,28.36
2022-08-12T05:23:13.058Z,27.06
2022-08-12T05:25:43.374Z,26.78
2022-08-12T05:28:14.616Z,26.71
2022-08-12T05:30:43.546Z,26.91
2022-08-12T05:33:13.563Z,27.12
2022-08-12T05:35:43.566Z,26.51
2022-08-12T05:38:45.350Z,26.56
2022-08-12T05:41:20.717Z,27.63
2022-08-12T05:43:52.701Z,27.20
2022-08-12T05:46:21.379Z,28.36
2022-08-12T05:48:51.435Z,27.65
2022-08-12T05:51:20.030Z,27.97
2022-08-12T05:53:48.408Z,27.34
2022-08-12T05:56:25.939Z,27.90
2022-08-12T05:58:55.985Z,27.99
2022-08-12T06:02:08.925Z,28.17
2022-08-12T06:04:14.850Z,28.15
2022-08-12T06:06:43.359Z,28.77
2022-08-12T06:09:12.297Z,28.00
2022-08-12T06:12:04.204Z,27.84
2022-08-12T06:14:35.274Z,27.56
2022-08-12T06:17:04.533Z,27.52
2022-08-12T06:20:27.501Z,28.38
2022-08-12T06:22:20.922Z,28.60
2022-08-12T06:24:49.949Z,28.00
2022-08-12T06:27:19.107Z,27.97
2022-08-12T06:30:09.311Z,27.93
2022-08-12T06:32:42.830Z,29.08
2022-08-12T06:35:24.930Z,30.10
2022-08-12T06:37:57.686Z,29.47
2022-08-12T06:40:40.148Z,29.77
2022-08-12T06:43:08.692Z,30.82
2022-08-12T06:45:46.812Z,32.10
2022-08-12T06:48:16.554Z,31.98
2022-08-12T06:50:46.156Z,33.17
2022-08-12T06:53:14.336Z,31.91
2022-08-12T06:55:58.177Z,30.27
2022-08-12T06:58:27.858Z,30.08
2022-08-12T07:00:58.896Z,30.18
2022-08-12T07:03:29.140Z,29.91
2022-08-12T07:05:58.407Z,29.51
2022-08-12T07:08:29.367Z,29.70
2022-08-12T07:11:00.191Z,31.00
2022-08-12T07:13:31.062Z,30.71
2022-08-12T07:16:01.346Z,29.66
2022-08-12T07:18:33.031Z,30.48
2022-08-12T07:21:04.070Z,30.50
2022-08-12T07:23:33.638Z,30.13
2022-08-12T07:26:03.077Z,30.02
2022-08-12T07:28:35.009Z,29.05
2022-08-12T07:31:08.030Z,28.75
2022-08-12T07:33:39.627Z,29.67
2022-08-12T07:36:10.937Z,28.59
2022-08-12T07:38:43.866Z,29.17
2022-08-12T07:41:15.847Z,29.61
2022-08-12T07:43:46.368Z,30.37
2022-08-12T07:46:18.261Z,29.60
2022-08-12T07:48:50.100Z,29.02
2022-08-12T07:51:25.231Z,28.65
2022-08-12T07:54:00.097Z,28.13
2022-08-12T07:56:32.164Z,28.44
2022-08-12T07:59:01.276Z,28.16
2022-08-12T08:01:32.895Z,28.14
2022-08-12T08:04:19.571Z,28.02
2022-08-12T08:06:50.497Z,27.65
2022-08-12T08:09:22.621Z,27.47
2022-08-12T08:12:08.734Z,27.91
2022-08-12T08:14:37.263Z,28.18
2022-08-12T08:17:10.575Z,27.85
2022-08-12T08:20:03.057Z,27.68
2022-08-12T08:22:50.176Z,26.39
2022-08-12T08:25:35.223Z,26.95
2022-08-12T08:28:06.114Z,27.18
2022-08-12T08:30:34.740Z,27.44
2022-08-12T08:33:08.656Z,26.96
2022-08-12T08:35:54.269Z,27.02
2022-08-12T08:38:32.110Z,27.37
2022-08-12T08:42:14.227Z,27.77
2022-08-12T08:44:11.047Z,27.69
2022-08-12T08:46:40.108Z,27.53
2022-08-12T08:49:10.090Z,27.36
2022-08-12T08:51:39.094Z,27.82
2022-08-12T08:54:11.634Z,28.17
2022-08-12T08:56:50.440Z,28.05
2022-08-12T08:59:20.007Z,28.46
2022-08-12T09:01:49.369Z,28.78
2022-08-12T09:05:07.545Z,28.39
2022-08-12T09:07:17.897Z,28.13
2022-08-12T09:13:03.350Z,29.35
2022-08-12T09:15:36.349Z,28.87
2022-08-12T09:20:57.357Z,28.88
2022-08-12T09:26:19.764Z,29.06
2022-08-12T09:28:52.855Z,29.14
2022-08-12T09:32:07.773Z,29.35
2022-08-12T09:34:27.692Z,29.41
2022-08-12T09:37:20.205Z,29.01
2022-08-12T09:40:00.663Z,29.29
2022-08-12T09:43:11.284Z,29.62
2022-08-12T09:46:19.822Z,29.76
2022-08-12T09:48:26.790Z,29.51
2022-08-12T09:51:03.650Z,29.37
2022-08-12T09:53:36.299Z,29.19
2022-08-12T09:57:02.758Z,29.18
2022-08-12T09:59:01.350Z,28.96
2022-08-12T10:01:35.604Z,29.21
2022-08-12T10:04:20.677Z,29.51
2022-08-12T10:06:55.317Z,29.75
2022-08-12T10:09:28.606Z,29.64
2022-08-12T10:12:33.375Z,29.73
2022-08-12T10:15:02.286Z,29.82
2022-08-12T10:17:31.179Z,29.72
2022-08-12T10:20:01.563Z,29.70
2022-08-12T10:22:40.458Z,30.01
2022-08-12T10:26:18.489Z,30.05
2022-08-12T10:28:36.302Z,29.91
2022-08-12T10:31:16.237Z,30.26
2022-08-12T10:34:05.431Z,30.12
2022-08-12T10:36:40.064Z,30.17
2022-08-12T10:40:00.287Z,30.29
2022-08-12T10:42:18.373Z,30.11
2022-08-12T10:45:01.057Z,30.17
2022-08-12T10:48:15.855Z,30.07
2022-08-12T10:50:28.487Z,30.01
2022-08-12T10:53:10.024Z,29.39
2022-08-12T10:55:39.647Z,29.45
2022-08-12T10:58:15.401Z,29.44
2022-08-12T11:01:26.061Z,29.60
2022-08-12T11:04:35.393Z,29.39
2022-08-12T11:07:06.191Z,29.11
2022-08-12T11:09:51.263Z,29.06
2022-08-12T11:12:56.933Z,29.27
2022-08-12T11:15:18.816Z,29.06
2022-08-12T11:17:53.990Z,29.28
2022-08-12T11:20:29.101Z,29.20
2022-08-12T11:23:03.507Z,28.97
2022-08-12T11:25:55.992Z,29.00
2022-08-12T11:28:34.562Z,28.45
2022-08-12T11:31:12.317Z,28.59
2022-08-12T11:34:05.190Z,28.62
2022-08-12T11:36:31.518Z,28.77
2022-08-12T11:39:04.445Z,28.72
2022-08-12T11:41:34.838Z,28.59
2022-08-12T11:44:29.160Z,28.19
2022-08-12T11:46:54.831Z,28.40
2022-08-12T11:49:31.719Z,28.38
2022-08-12T11:52:17.647Z,28.32
2022-08-12T11:54:54.335Z,27.31
2022-08-12T11:58:17.264Z,27.29
2022-08-12T12:03:02.306Z,27.81
2022-08-12T12:05:41.977Z,27.67
2022-08-12T12:08:41.111Z,27.74
2022-08-12T12:11:10.064Z,27.60
2022-08-12T12:14:07.371Z,27.62
2022-08-12T12:16:27.053Z,27.61
2022-08-12T12:18:59.548Z,27.20
2022-08-12T12:21:48.100Z,26.78
2022-08-12T12:24:21.253Z,26.55
2022-08-12T12:26:59.732Z,26.43
2022-08-12T12:30:19.077Z,26.36
2022-08-12T12:32:18.469Z,26.72
2022-08-12T12:35:18.228Z,26.77
2022-08-12T12:38:03.238Z,26.28
2022-08-12T12:40:34.558Z,26.63
2022-08-12T12:43:05.514Z,26.94
2022-08-12T12:45:35.739Z,26.97
2022-08-12T12:48:05.704Z,27.00
2022-08-12T12:50:42.709Z,26.90
2022-08-12T12:54:07.152Z,26.78
2022-08-12T12:56:13.254Z,26.99
2022-08-12T12:58:43.473Z,26.96
2022-08-12T13:01:25.514Z,26.93
2022-08-12T13:04:01.893Z,26.91
2022-08-12T13:06:32.470Z,27.08
2022-08-12T13:09:03.854Z,26.90
2022-08-12T13:11:41.175Z,26.53
2022-08-12T13:14:28.953Z,26.61
2022-08-12T13:17:02.889Z,26.72
2022-08-12T13:19:37.748Z,26.67
2022-08-12T13:22:23.753Z,26.69
2022-08-12T13:24:56.546Z,26.82
2022-08-12T13:27:34.437Z,26.78
2022-08-12T13:30:06.871Z,26.92
2022-08-12T13:32:39.427Z,26.92
2022-08-12T13:35:19.775Z,26.87
2022-08-12T13:38:02.713Z,26.85
2022-08-12T13:40:33.808Z,26.48
2022-08-12T13:43:07.171Z,26.44
2022-08-12T13:45:36.666Z,26.49
2022-08-12T13:48:06.813Z,26.56
2022-08-12T13:50:37.761Z,26.49
2022-08-12T13:53:24.587Z,26.36
2022-08-12T13:55:59.374Z,26.46
2022-08-12T13:58:34.719Z,26.44
2022-08-12T14:01:08.585Z,26.43
2022-08-12T14:03:50.287Z,26.52
2022-08-12T14:06:20.809Z,26.32
2022-08-12T14:08:50.777Z,26.16
2022-08-12T14:11:25.142Z,26.24
2022-08-12T14:14:03.783Z,26.23
2022-08-12T14:16:48.538Z,25.99
2022-08-12T14:19:24.434Z,25.98
2022-08-12T14:21:58.847Z,25.82
2022-08-12T14:24:40.359Z,25.93
2022-08-12T14:27:10.504Z,25.97
2022-08-12T14:30:04.926Z,25.90
2022-08-12T14:32:35.200Z,25.95
2022-08-12T14:35:09.450Z,26.03
2022-08-12T14:37:55.045Z,25.95
2022-08-12T14:40:29.617Z,26.07
2022-08-12T14:42:59.220Z,26.13
2022-08-12T14:45:44.525Z,26.11
2022-08-12T14:48:19.624Z,26.07
2022-08-12T14:52:54.642Z,26.10
2022-08-12T14:55:24.713Z,26.05
2022-08-12T14:59:57.658Z,25.89
2022-08-12T15:02:29.687Z,25.86
2022-08-12T15:04:59.779Z,25.70
2022-08-12T15:07:33.569Z,25.66
2022-08-12T15:10:25.445Z,25.57
2022-08-12T15:13:07.532Z,25.62
2022-08-12T15:15:43.846Z,25.62
2022-08-12T15:18:15.728Z,25.48
2022-08-12T15:20:50.627Z,25.50
2022-08-12T15:23:21.623Z,25.53
2022-08-12T15:25:59.700Z,25.62
2022-08-12T15:28:35.015Z,25.47
2022-08-12T15:31:21.435Z,25.48
2022-08-12T15:33:52.754Z,25.23
2022-08-12T15:36:36.487Z,25.33
2022-08-12T15:39:16.906Z,25.36
2022-08-12T15:41:49.280Z,25.12
2022-08-12T15:44:42.420Z,25.09
2022-08-12T15:47:09.424Z,25.17
2022-08-12T15:49:54.159Z,25.15
2022-08-12T15:52:27.930Z,25.10
2022-08-12T15:54:58.741Z,25.01
2022-08-12T15:57:28.107Z,24.85
2022-08-12T16:00:07.315Z,24.85
2022-08-12T16:02:50.175Z,24.69
2022-08-12T16:06:19.413Z,24.63
2022-08-12T16:08:15.516Z,24.63
2022-08-12T16:10:45.979Z,24.66
2022-08-12T16:13:32.581Z,24.64
2022-08-12T16:16:12.291Z,24.64
2022-08-12T16:18:59.463Z,24.57
2022-08-12T16:21:52.164Z,24.51
2022-08-12T16:24:18.920Z,24.49
2022-08-12T16:26:51.563Z,24.38
2022-08-12T16:29:38.578Z,24.40
2022-08-12T16:32:21.204Z,24.34
2022-08-12T16:34:54.689Z,24.39
2022-08-12T16:37:32.271Z,24.14
2022-08-12T16:40:04.796Z,24.06
2022-08-12T16:42:39.201Z,24.03
2022-08-12T16:45:32.108Z,24.01
2022-08-12T16:48:35.426Z,23.87
2022-08-12T16:51:04.233Z,23.63
2022-08-12T16:53:44.672Z,23.69
2022-08-12T16:56:14.952Z,23.72
2022-08-12T16:58:43.926Z,23.68
2022-08-12T17:01:14.718Z,23.65
2022-08-12T17:03:46.948Z,23.64
2022-08-12T17:06:22.235Z,23.47
2022-08-12T17:09:08.700Z,23.50
2022-08-12T17:11:49.171Z,23.57
2022-08-12T17:14:20.281Z,23.53
2022-08-12T17:16:54.960Z,23.49
2022-08-12T17:20:16.251Z,23.44
2022-08-12T17:22:21.799Z,23.34
2022-08-12T17:24:55.965Z,23.36
2022-08-12T17:27:26.296Z,23.34
2022-08-12T17:30:00.808Z,23.33
2022-08-12T17:32:33.760Z,23.32
2022-08-12T17:35:20.953Z,23.35
2022-08-12T17:37:50.879Z,23.33
2022-08-12T17:40:35.974Z,23.33
2022-08-12T17:43:56.048Z,23.36
2022-08-12T17:45:59.035Z,23.28
2022-08-12T17:48:34.099Z,23.18
2022-08-12T17:51:16.007Z,23.16
2022-08-12T17:54:10.514Z,23.21
2022-08-12T17:56:37.349Z,23.16
2022-08-12T17:59:12.475Z,23.17
2022-08-12T18:01:45.202Z,23.16
2022-08-12T18:04:22.782Z,23.13
2022-08-12T18:07:06.385Z,23.11
2022-08-12T18:09:37.536Z,23.09
2022-08-12T18:12:24.277Z,23.05
2022-08-12T18:14:58.457Z,22.97
2022-08-12T18:17:31.059Z,22.91
2022-08-12T18:20:04.940Z,22.88
2022-08-12T18:22:38.622Z,22.86
2022-08-12T18:26:11.446Z,22.83
2022-08-12T18:28:15.163Z,22.79
2022-08-12T18:30:52.496Z,22.81
2022-08-12T18:33:25.117Z,22.76
2022-08-12T18:35:57.044Z,22.72
2022-08-12T18:38:28.270Z,22.70
2022-08-12T18:41:21.611Z,22.68
2022-08-12T18:44:00.279Z,22.67
2022-08-12T18:46:38.402Z,22.58
2022-08-12T18:49:17.087Z,22.54
2022-08-12T18:51:55.255Z,22.51
2022-08-12T18:54:27.742Z,22.50
2022-08-12T18:56:59.292Z,22.48
2022-08-12T18:59:59.896Z,22.44
2022-08-12T19:02:22.485Z,22.41
2022-08-12T19:04:53.336Z,22.39
2022-08-12T19:07:23.173Z,22.43
2022-08-12T19:09:58.261Z,22.50
2022-08-12T19:12:56.910Z,22.43
2022-08-12T19:15:27.375Z,22.40
2022-08-12T19:18:02.729Z,22.44
2022-08-12T19:20:31.979Z,22.47
2022-08-12T19:23:07.509Z,22.44
2022-08-12T19:25:55.422Z,22.43
2022-08-12T19:28:35.311Z,22.39
2022-08-12T19:31:45.169Z,22.37
2022-08-12T19:37:22.886Z,22.40
2022-08-12T19:40:10.317Z,22.44
2022-08-12T19:42:53.333Z,22.54
2022-08-12T19:45:22.655Z,22.47
2022-08-12T19:47:51.445Z,22.45
2022-08-12T19:50:20.459Z,22.42
2022-08-12T19:52:55.059Z,22.29
2022-08-12T19:55:23.892Z,22.24
2022-08-12T19:58:02.946Z,22.32
2022-08-12T20:00:34.705Z,22.37
2022-08-12T20:03:07.841Z,22.33
2022-08-12T20:06:04.904Z,22.30
2022-08-12T20:08:34.001Z,22.27
2022-08-12T20:12:11.454Z,22.26
2022-08-12T20:14:00.492Z,22.22
2022-08-12T20:19:53.090Z,22.25
2022-08-12T20:22:23.933Z,22.41
2022-08-12T20:24:55.392Z,22.47
2022-08-12T20:27:29.060Z,22.52
2022-08-12T20:30:16.346Z,22.43
2022-08-12T20:32:55.126Z,22.43
2022-08-12T20:36:06.351Z,22.43
2022-08-12T20:38:26.851Z,22.41
2022-08-12T20:40:55.982Z,22.22
2022-08-12T20:43:28.186Z,22.13
2022-08-12T20:46:01.586Z,22.00
2022-08-12T20:48:30.637Z,21.88
2022-08-12T20:51:04.581Z,21.75
2022-08-12T20:53:57.841Z,21.73
2022-08-12T20:56:30.859Z,21.55
2022-08-12T20:59:01.471Z,21.49
2022-08-12T21:01:46.046Z,21.54
2022-08-12T21:04:35.484Z,21.55
2022-08-12T21:07:09.802Z,21.48
2022-08-12T21:09:42.012Z,21.49
2022-08-12T21:12:31.517Z,21.52
2022-08-12T21:15:23.808Z,21.54
2022-08-12T21:18:11.568Z,21.55
2022-08-12T21:20:52.902Z,21.46
2022-08-12T21:23:22.867Z,21.53
2022-08-12T21:25:52.713Z,21.54
2022-08-12T21:28:27.578Z,21.55
2022-08-12T21:32:37.616Z,21.61
2022-08-12T21:34:07.039Z,21.68
2022-08-12T21:36:39.640Z,21.84
2022-08-12T21:39:20.466Z,22.03
2022-08-12T21:41:50.990Z,22.13
2022-08-12T21:45:44.614Z,22.23
2022-08-12T21:47:19.616Z,22.37
2022-08-12T21:50:03.476Z,22.51
2022-08-12T21:52:36.524Z,22.61
2022-08-12T21:55:08.481Z,22.67
2022-08-12T21:57:50.626Z,22.73
2022-08-12T22:00:31.575Z,22.71
2022-08-12T22:04:01.254Z,22.72
2022-08-12T22:06:31.782Z,22.78
2022-08-12T22:09:16.850Z,22.78
2022-08-12T22:11:49.229Z,22.78
2022-08-12T22:14:25.456Z,22.77
2022-08-12T22:16:55.991Z,22.75
2022-08-12T22:19:24.708Z,22.75
2022-08-12T22:21:58.458Z,22.59
2022-08-12T22:24:30.379Z,22.50
2022-08-12T22:27:08.191Z,22.38
2022-08-12T22:30:06.158Z,22.45
2022-08-12T22:32:36.601Z,22.50
2022-08-12T22:35:24.370Z,22.27
2022-08-12T22:38:10.969Z,22.20
2022-08-12T22:40:39.761Z,22.20
2022-08-12T22:43:29.482Z,22.20
2022-08-12T22:46:23.474Z,22.25
2022-08-12T22:48:58.936Z,22.20
2022-08-12T22:51:27.088Z,22.21
2022-08-12T22:54:07.874Z,22.22
2022-08-12T22:56:57.586Z,22.14
2022-08-12T22:59:51.195Z,22.15
2022-08-12T23:02:28.973Z,22.12
2022-08-12T23:04:58.432Z,22.10
2022-08-12T23:07:27.629Z,22.13
2022-08-12T23:10:10.618Z,22.12
2022-08-12T23:12:58.551Z,22.10
2022-08-12T23:15:26.794Z,22.11
2022-08-12T23:17:58.082Z,22.03
2022-08-12T23:20:27.618Z,22.04
2022-08-12T23:23:03.003Z,22.00
2022-08-12T23:25:54.577Z,21.98
2022-08-12T23:28:42.305Z,21.92
2022-08-12T23:31:10.834Z,21.91
2022-08-12T23:34:01.595Z,21.92
2022-08-12T23:36:31.884Z,21.82
2022-08-12T23:40:15.530Z,21.75
2022-08-12T23:42:16.611Z,21.73
2022-08-12T23:44:48.636Z,21.61
2022-08-12T23:47:22.774Z,21.61
2022-08-12T23:49:57.917Z,21.53
2022-08-12T23:52:34.737Z,21.49
2022-08-12T23:55:24.171Z,21.50
2022-08-12T23:58:22.531Z,21.47
